F/V J. Louis Vincent — FQBL — position and weather

sailwx.info

Track history (hours):
 
Tides and Currents Weather Stations Pressure Air Temp Water Temp Dewpoint Dewpoint Depression Visibility Wind Speed Wind Dir Waves Ship Positions

F/V J. Louis Vincent

Last reported at 2015-Mar-04 17:27 UTC. Time now 2015-Mar-05 00:20 UTC.
Position N 43°24' E 003°42'.

Length 29 m.

Type: Fishing. MMSI: 227146600.

Date/timePositionNaut miles runAvg speedWind from/ knotsBaromVisibWave heightAir tempDewpointWater temp
2015-Mar-04 17:27N 43°24' E 003°42'2 1.7
2015-Mar-04 16:29N 43°22' E 003°43'1211.4
2015-Mar-04 15:28N 43°13' E 003°53'7 7.3
2015-Mar-04 14:28N 43°07' E 003°59'4 4.2
2015-Mar-04 13:32N 43°04' E 004°02'4 4.2
2015-Mar-04 12:29N 43°02' E 004°07'3 2.9
2015-Mar-04 11:29N 43°01' E 004°11'5 4.3
2015-Mar-04 10:22N 42°59' E 004°17'4 4.3
2015-Mar-04 09:33N 42°57' E 004°21'5 4.7
2015-Mar-04 08:30N 42°53' E 004°25'3 3.3
2015-Mar-04 07:31N 42°56' E 004°26'4 4.3
2015-Mar-04 06:29N 43°01' E 004°24'6 4.3
2015-Mar-04 05:09N 43°04' E 004°18'33 2.6
2015-Mar-03 16:23N 43°24' E 003°42'5 6.4
2015-Mar-03 15:32N 43°19' E 003°46'1711.8
2015-Mar-03 14:07N 43°05' E 003°58'3 3.5
2015-Mar-03 13:10N 43°02' E 004°01'3 4.2
2015-Mar-03 12:31N 43°00' E 004°03'4 3.6
2015-Mar-03 11:26N 42°57' E 004°06'4 4.1
2015-Mar-03 10:21N 42°56' E 004°12'3 4.2
2015-Mar-03 09:33N 42°53' E 004°15'5 4.2
2015-Mar-03 08:18N 42°49' E 004°19'44 3.0
2015-Mar-02 17:33N 43°24' E 003°42'30 7.3
2015-Mar-02 13:27N 43°05' E 004°13'4 4.3
2015-Mar-02 12:33N 43°04' E 004°18'4 3.5
2015-Mar-02 11:24N 43°03' E 004°24'4 4.2
2015-Mar-02 10:31N 43°02' E 004°29'4 4.2
2015-Mar-02 09:31N 43°00' E 004°33'3 2.3
2015-Mar-02 08:22N 42°58' E 004°36'3 3.3
2015-Mar-02 07:31N 43°00' E 004°33'5 4.3
2015-Mar-02 06:25N 43°03' E 004°28'  
2015-Feb-27 17:27N 43°24' E 003°42'4 3.8
2015-Feb-27 16:28N 43°21' E 003°46'7 7.5
2015-Feb-27 15:32N 43°17' E 003°53'5 3.9
2015-Feb-27 14:13N 43°13' E 003°57'3 4.3
2015-Feb-27 13:29N 43°10' E 003°60'6 4.9
2015-Feb-27 12:14N 43°06' E 004°06'2 2.9
2015-Feb-27 11:30N 43°04' E 004°08'4 4.2
2015-Feb-27 10:29N 43°02' E 004°13'4 4.3
2015-Feb-27 09:33N 43°01' E 004°18'5 4.5
2015-Feb-27 08:26N 42°59' E 004°24'2 1.8
2015-Feb-27 07:28N 42°59' E 004°22'10 8.2
2015-Feb-27 06:11N 43°03' E 004°09'29 2.4
2015-Feb-26 18:13N 43°24' E 003°42'0 0.6
2015-Feb-26 17:29N 43°24' E 003°42'12 9.3
2015-Feb-26 16:12N 43°18' E 003°56'1012.8
2015-Feb-26 15:26N 43°12' E 004°07'8 6.3
2015-Feb-26 14:10N 43°08' E 004°17'3 4.3
2015-Feb-26 13:22N 43°07' E 004°21'4 4.2
2015-Feb-26 12:25N 43°04' E 004°25'2 2.9
2015-Feb-26 11:33N 43°03' E 004°28'8 4.1
2015-Feb-26 09:32N 42°55' E 004°24'4 3.5
2015-Feb-26 08:25N 42°51' E 004°23'4 3.8
2015-Feb-26 07:24N 42°55' E 004°22'4 4.1
2015-Feb-26 06:20N 42°58' E 004°19'37 2.9
2015-Feb-25 17:23N 43°24' E 003°42'0 0.0
2015-Feb-25 16:27N 43°24' E 003°42'0 0.4
2015-Feb-25 15:25N 43°24' E 003°42'30 9.6
2015-Feb-25 12:17N 43°10' E 004°19'3 3.8
2015-Feb-25 11:33N 43°09' E 004°22'5 4.1
2015-Feb-25 10:24N 43°07' E 004°28'3 1.7
2015-Feb-25 08:19N 43°09' E 004°24'34 2.4
2015-Feb-24 18:13N 43°24' E 003°42'0 0.0
2015-Feb-24 17:28N 43°24' E 003°42'0 0.4
2015-Feb-24 16:28N 43°24' E 003°42'19 6.4
2015-Feb-24 13:24N 43°14' E 004°05'4 4.3
2015-Feb-24 12:29N 43°12' E 004°10'1 1.5
2015-Feb-24 11:33N 43°12' E 004°12'4 4.2
2015-Feb-24 10:33N 43°11' E 004°17'5 4.4
2015-Feb-24 09:29N 43°08' E 004°22'4 3.7
2015-Feb-24 08:29N 43°06' E 004°27'4 4.4
2015-Feb-24 07:29N 43°07' E 004°21'4 4.3
2015-Feb-24 06:29N 43°10' E 004°16'4 4.3
2015-Feb-24 05:29N 43°13' E 004°11'4 4.3
2015-Feb-24 04:29N 43°14' E 004°06'5 4.6
2015-Feb-24 03:29N 43°14' E 003°59'1011.0
2015-Feb-24 02:32N 43°20' E 003°47'6 0.7
2015-Feb-23 18:10N 43°24' E 003°42'0 0.5
2015-Feb-23 17:28N 43°24' E 003°42'6 6.3
2015-Feb-23 16:27N 43°18' E 003°46'910.2
2015-Feb-23 15:33N 43°10' E 003°51'4 4.0
2015-Feb-23 14:33N 43°06' E 003°52'4 4.0
2015-Feb-23 13:31N 43°02' E 003°54'4 4.4
2015-Feb-23 12:32N 42°58' E 003°56'7 3.7
2015-Feb-23 10:33N 42°56' E 004°06'5 4.5
2015-Feb-23 09:20N 42°54' E 004°13'4 4.6
2015-Feb-23 08:28N 42°52' E 004°18'3 2.5
2015-Feb-23 07:07N 42°56' E 004°17'3 4.4
2015-Feb-23 06:26N 42°58' E 004°15'  
Track history (hours):
 
Tides and Currents Weather Stations Pressure Air Temp Water Temp Dewpoint Dewpoint Depression Visibility Wind Speed Wind Dir Waves Ship Positions

F/V J. Louis Vincent

Last reported at 2015-Mar-04 17:27 UTC. Time now 2015-Mar-05 00:20 UTC.
Position N 43°24' E 003°42'.

Length 29 m.

Type: Fishing. MMSI: 227146600.

Date/timePositionNaut miles runAvg speedWind from/ knotsBaromVisibWave heightAir tempDewpointWater temp
2015-Mar-04 17:27N 43°24' E 003°42'2 1.7
2015-Mar-04 16:29N 43°22' E 003°43'1211.4
2015-Mar-04 15:28N 43°13' E 003°53'7 7.3
2015-Mar-04 14:28N 43°07' E 003°59'4 4.2
2015-Mar-04 13:32N 43°04' E 004°02'4 4.2
2015-Mar-04 12:29N 43°02' E 004°07'3 2.9
2015-Mar-04 11:29N 43°01' E 004°11'5 4.3
2015-Mar-04 10:22N 42°59' E 004°17'4 4.3
2015-Mar-04 09:33N 42°57' E 004°21'5 4.7
2015-Mar-04 08:30N 42°53' E 004°25'3 3.3
2015-Mar-04 07:31N 42°56' E 004°26'4 4.3
2015-Mar-04 06:29N 43°01' E 004°24'6 4.3
2015-Mar-04 05:09N 43°04' E 004°18'33 2.6
2015-Mar-03 16:23N 43°24' E 003°42'5 6.4
2015-Mar-03 15:32N 43°19' E 003°46'1711.8
2015-Mar-03 14:07N 43°05' E 003°58'3 3.5
2015-Mar-03 13:10N 43°02' E 004°01'3 4.2
2015-Mar-03 12:31N 43°00' E 004°03'4 3.6
2015-Mar-03 11:26N 42°57' E 004°06'4 4.1
2015-Mar-03 10:21N 42°56' E 004°12'3 4.2
2015-Mar-03 09:33N 42°53' E 004°15'5 4.2
2015-Mar-03 08:18N 42°49' E 004°19'44 3.0
2015-Mar-02 17:33N 43°24' E 003°42'30 7.3
2015-Mar-02 13:27N 43°05' E 004°13'4 4.3
2015-Mar-02 12:33N 43°04' E 004°18'4 3.5
2015-Mar-02 11:24N 43°03' E 004°24'4 4.2
2015-Mar-02 10:31N 43°02' E 004°29'4 4.2
2015-Mar-02 09:31N 43°00' E 004°33'3 2.3
2015-Mar-02 08:22N 42°58' E 004°36'3 3.3
2015-Mar-02 07:31N 43°00' E 004°33'5 4.3
2015-Mar-02 06:25N 43°03' E 004°28'  
2015-Feb-27 17:27N 43°24' E 003°42'4 3.8
2015-Feb-27 16:28N 43°21' E 003°46'7 7.5
2015-Feb-27 15:32N 43°17' E 003°53'5 3.9
2015-Feb-27 14:13N 43°13' E 003°57'3 4.3
2015-Feb-27 13:29N 43°10' E 003°60'6 4.9
2015-Feb-27 12:14N 43°06' E 004°06'2 2.9
2015-Feb-27 11:30N 43°04' E 004°08'4 4.2
2015-Feb-27 10:29N 43°02' E 004°13'4 4.3
2015-Feb-27 09:33N 43°01' E 004°18'5 4.5
2015-Feb-27 08:26N 42°59' E 004°24'2 1.8
2015-Feb-27 07:28N 42°59' E 004°22'10 8.2
2015-Feb-27 06:11N 43°03' E 004°09'29 2.4
2015-Feb-26 18:13N 43°24' E 003°42'0 0.6
2015-Feb-26 17:29N 43°24' E 003°42'12 9.3
2015-Feb-26 16:12N 43°18' E 003°56'1012.8
2015-Feb-26 15:26N 43°12' E 004°07'8 6.3
2015-Feb-26 14:10N 43°08' E 004°17'3 4.3
2015-Feb-26 13:22N 43°07' E 004°21'4 4.2
2015-Feb-26 12:25N 43°04' E 004°25'2 2.9
2015-Feb-26 11:33N 43°03' E 004°28'8 4.1
2015-Feb-26 09:32N 42°55' E 004°24'4 3.5
2015-Feb-26 08:25N 42°51' E 004°23'4 3.8
2015-Feb-26 07:24N 42°55' E 004°22'4 4.1
2015-Feb-26 06:20N 42°58' E 004°19'37 2.9
2015-Feb-25 17:23N 43°24' E 003°42'0 0.0
2015-Feb-25 16:27N 43°24' E 003°42'0 0.4
2015-Feb-25 15:25N 43°24' E 003°42'30 9.6
2015-Feb-25 12:17N 43°10' E 004°19'3 3.8
2015-Feb-25 11:33N 43°09' E 004°22'5 4.1
2015-Feb-25 10:24N 43°07' E 004°28'3 1.7
2015-Feb-25 08:19N 43°09' E 004°24'34 2.4
2015-Feb-24 18:13N 43°24' E 003°42'0 0.0
2015-Feb-24 17:28N 43°24' E 003°42'0 0.4
2015-Feb-24 16:28N 43°24' E 003°42'19 6.4
2015-Feb-24 13:24N 43°14' E 004°05'4 4.3
2015-Feb-24 12:29N 43°12' E 004°10'1 1.5
2015-Feb-24 11:33N 43°12' E 004°12'4 4.2
2015-Feb-24 10:33N 43°11' E 004°17'5 4.4
2015-Feb-24 09:29N 43°08' E 004°22'4 3.7
2015-Feb-24 08:29N 43°06' E 004°27'4 4.4
2015-Feb-24 07:29N 43°07' E 004°21'4 4.3
2015-Feb-24 06:29N 43°10' E 004°16'4 4.3
2015-Feb-24 05:29N 43°13' E 004°11'4 4.3
2015-Feb-24 04:29N 43°14' E 004°06'5 4.6
2015-Feb-24 03:29N 43°14' E 003°59'1011.0
2015-Feb-24 02:32N 43°20' E 003°47'6 0.7
2015-Feb-23 18:10N 43°24' E 003°42'0 0.5
2015-Feb-23 17:28N 43°24' E 003°42'6 6.3
2015-Feb-23 16:27N 43°18' E 003°46'910.2
2015-Feb-23 15:33N 43°10' E 003°51'4 4.0
2015-Feb-23 14:33N 43°06' E 003°52'4 4.0
2015-Feb-23 13:31N 43°02' E 003°54'4 4.4
2015-Feb-23 12:32N 42°58' E 003°56'7 3.7
2015-Feb-23 10:33N 42°56' E 004°06'5 4.5
2015-Feb-23 09:20N 42°54' E 004°13'4 4.6
2015-Feb-23 08:28N 42°52' E 004°18'3 2.5
2015-Feb-23 07:07N 42°56' E 004°17'3 4.4
2015-Feb-23 06:26N 42°58' E 004°15'  

Dump ship's entire track history